Time;durP1;ratioP1;P1;durP2;ratioP2;P2;SDS_P1;SDS_P2;PMS_P1;PMS_P2;Temp;Humidity;BMP_temperature;BMP_pressure;BME280_temperature;BME280_humidity;BME280_pressure;Samples;Min_cycle;Max_cycle;Signal;HPM_P1;HPM_P2
2022/01/30 00:00:00;;;;;;;;;;;;;;;26.82;24.28;97657.81;171131;28;1064;-61
2022/01/30 00:00:06;;;;;;;;;;;;;;;26.81;24.59;97657.94;171339;28;814;-62
2022/01/30 00:00:11;;;;;;;;;;;;;;;26.81;24.43;97663.22;171912;28;1209;-60
2022/01/30 00:00:16;;;;;;;;;;;;;;;26.82;24.66;97664.91;171815;28;1017;-62
2022/01/30 00:00:22;;;;;;;;;;;;;;;26.86;24.33;97655.72;170210;29;1339;-61
2022/01/30 00:00:27;;;;;;;;;;;;;;;26.86;24.59;97653.09;170633;29;818;-61
2022/01/30 00:00:33;;;;;;;;;;;;;;;26.80;24.64;97662.38;170773;28;1123;-61
2022/01/30 00:00:39;;;;;;;;;;;;;;;26.75;24.52;97661.91;171237;28;810;-61
2022/01/30 00:00:44;;;;;;;;;;;;;;;26.78;24.57;97666.97;170366;29;1162;-60
2022/01/30 00:00:50;;;;;;;;;;;;;;;26.79;24.40;97651.94;170342;29;925;-61
2022/01/30 00:00:56;;;;;;;;;;;;;;;26.81;24.38;97658.78;169793;29;1131;-61
2022/01/30 00:01:02;;;;;;;;;;;;;;;26.82;24.39;97663.09;170967;28;1086;-60
2022/01/30 00:01:07;;;;;;;;;;;;;;;26.85;24.31;97668.13;171132;28;1044;-61
2022/01/30 00:01:12;;;;;;;;;;;;;;;26.85;24.63;97670.78;171215;28;861;-62
2022/01/30 00:01:18;;;;;;;;;;;;;;;26.83;24.25;97663.94;171086;28;1068;-61
2022/01/30 00:01:24;;;;;;;;;;;;;;;26.85;24.60;97668.13;171300;28;786;-62
2022/01/30 00:01:29;;;;;;;;;;;;;;;26.85;24.57;97665.47;171203;28;1169;-61
2022/01/30 00:01:34;;;;;;;;;;;;;;;26.83;24.49;97666.56;171177;28;877;-62
2022/01/30 00:01:39;;;;;;;;;;;;;;;26.83;24.58;97662.13;170675;28;4209;-61
2022/01/30 00:01:45;;;;;;;;;;;;;;;26.84;24.58;97670.91;170929;28;1170;-61
2022/01/30 00:01:50;;;;;;;;;;;;;;;26.85;24.37;97668.13;170964;28;1062;-61
2022/01/30 00:01:55;;;;;;;;;;;;;;;26.83;24.57;97664.78;171131;28;1123;-61
2022/01/30 00:02:00;;;;;;;;;;;;;;;26.83;24.34;97656.00;171051;28;971;-61
2022/01/30 00:02:05;;;;;;;;;;;;;;;26.84;24.66;97662.97;171590;28;1149;-61
2022/01/30 00:02:11;;;;;;;;;;;;;;;26.86;24.44;97664.53;170569;29;941;-61
2022/01/30 00:02:16;;;;;;;;;;;;;;;26.81;24.58;97656.13;170561;29;1190;-61
2022/01/30 00:02:21;;;;;;;;;;;;;;;26.87;24.33;97658.28;170528;29;826;-61
2022/01/30 00:02:27;;;;;;;;;;;;;;;26.87;24.50;97662.72;170525;29;918;-60
2022/01/30 00:02:32;;;;;;;;;;;;;;;26.81;24.33;97658.78;170998;28;1186;-62
2022/01/30 00:02:37;;;;;;;;;;;;;;;26.83;24.41;97661.28;171072;28;850;-61
2022/01/30 00:02:42;;;;;;;;;;;;;;;26.83;24.42;97664.78;170481;29;1214;-62
2022/01/30 00:02:48;;;;;;;;;;;;;;;26.82;24.67;97663.09;170380;28;670;-62
2022/01/30 00:02:53;;;;;;;;;;;;;;;26.81;24.42;97666.72;169222;29;1017;-61
2022/01/30 00:02:58;;;;;;;;;;;;;;;26.81;24.36;97674.66;171133;28;997;-62
2022/01/30 00:03:03;;;;;;;;;;;;;;;26.81;24.58;97665.88;170944;28;1098;-61
2022/01/30 00:03:08;;;;;;;;;;;;;;;26.83;24.35;97670.06;171199;28;960;-62
2022/01/30 00:03:15;;;;;;;;;;;;;;;26.83;24.48;97674.50;171320;28;821;-61
2022/01/30 00:03:20;;;;;;;;;;;;;;;26.85;24.58;97669.94;171777;28;902;-61
2022/01/30 00:03:25;;;;;;;;;;;;;;;26.84;24.47;97668.25;171900;28;858;-61
2022/01/30 00:03:30;;;;;;;;;;;;;;;26.84;24.62;97679.69;171337;28;1133;-62
2022/01/30 00:03:36;;;;;;;;;;;;;;;26.83;24.61;97677.16;171108;28;902;-61
2022/01/30 00:03:41;;;;;;;;;;;;;;;26.75;24.45;97666.38;170972;28;988;-61
2022/01/30 00:03:46;;;;;;;;;;;;;;;26.78;24.42;97666.09;170993;28;747;-62
2022/01/30 00:03:51;;;;;;;;;;;;;;;26.80;24.67;97670.31;171625;28;1169;-61
2022/01/30 00:03:56;;;;;;;;;;;;;;;26.82;24.33;97672.84;171795;28;889;-61
2022/01/30 00:04:01;;;;;;;;;;;;;;;26.82;24.35;97676.31;171610;28;1149;-60
2022/01/30 00:04:07;;;;;;;;;;;;;;;26.80;24.52;97674.78;171698;28;1519;-60
2022/01/30 00:04:12;;;;;;;;;;;;;;;26.83;24.71;97674.50;172117;28;973;-61
2022/01/30 00:04:17;;;;;;;;;;;;;;;26.83;24.64;97663.94;171873;28;984;-61
2022/01/30 00:04:22;;;;;;;;;;;;;;;26.82;24.44;97668.38;171859;28;888;-61
2022/01/30 00:04:28;;;;;;;;;;;;;;;26.84;24.53;97670.91;171731;28;1174;-61
2022/01/30 00:04:33;;;;;;;;;;;;;;;26.84;24.32;97670.91;171747;28;890;-60
2022/01/30 00:04:38;;;;;;;;;;;;;;;26.82;24.41;97670.19;171840;28;960;-61
2022/01/30 00:04:43;;;;;;;;;;;;;;;26.82;24.38;97676.31;171690;28;897;-61
2022/01/30 00:04:48;;;;;;;;;;;;;;;26.83;24.60;97672.72;171646;28;810;-62
2022/01/30 00:04:53;;;;;;;;;;;;;;;26.86;24.40;97679.53;172345;28;1312;-62
2022/01/30 00:04:59;;;;;;;;;;;;;;;26.86;24.55;97672.47;171399;28;948;-61
2022/01/30 00:05:04;;;;;;;;;;;;;;;26.86;24.31;97677.75;170962;28;1260;-61
2022/01/30 00:05:10;;;;;;;;;;;;;;;26.85;24.57;97676.06;171243;28;827;-62
2022/01/30 00:05:15;;;;;;;;;;;;;;;26.86;24.55;97674.25;171141;28;1312;-61
2022/01/30 00:05:20;;;;;;;;;;;;;;;26.86;24.36;97674.25;171114;28;826;-61
2022/01/30 00:05:27;;;;;;;;;;;;;;;26.85;24.43;97676.06;171730;28;992;-62
2022/01/30 00:05:34;;;;;;;;;;;;;;;26.85;24.62;97672.56;171826;28;904;-61
2022/01/30 00:05:39;;;;;;;;;;;;;;;26.84;24.28;97670.91;171611;28;5241;-61
2022/01/30 00:05:45;;;;;;;;;;;;;;;26.84;24.63;97668.25;172434;28;940;-60
2022/01/30 00:05:50;;;;;;;;;;;;;;;26.83;24.66;97670.06;171414;28;1113;-60
2022/01/30 00:05:55;;;;;;;;;;;;;;;26.81;24.33;97669.34;171341;28;972;-62
2022/01/30 00:06:00;;;;;;;;;;;;;;;26.82;24.32;97675.47;170936;28;1090;-61
2022/01/30 00:06:05;;;;;;;;;;;;;;;26.82;24.61;97672.84;171205;28;1052;-62
2022/01/30 00:06:11;;;;;;;;;;;;;;;26.82;24.55;97670.19;171963;28;885;-62
2022/01/30 00:06:16;;;;;;;;;;;;;;;26.82;24.47;97665.75;171193;28;1209;-59
2022/01/30 00:06:21;;;;;;;;;;;;;;;26.83;24.32;97662.13;170530;29;1068;-59
2022/01/30 00:06:26;;;;;;;;;;;;;;;26.84;24.58;97671.72;170525;29;1226;-62
2022/01/30 00:06:31;;;;;;;;;;;;;;;26.84;24.50;97671.72;170555;29;901;-61
2022/01/30 00:06:37;;;;;;;;;;;;;;;26.89;24.66;97666.06;170476;29;1363;-62
2022/01/30 00:06:42;;;;;;;;;;;;;;;26.86;24.37;97669.81;170514;29;739;-61
2022/01/30 00:06:47;;;;;;;;;;;;;;;26.86;24.40;97658.38;170175;29;1154;-61
2022/01/30 00:06:52;;;;;;;;;;;;;;;26.85;24.50;97670.78;170465;29;862;-61
2022/01/30 00:06:57;;;;;;;;;;;;;;;26.84;24.47;97663.78;171302;28;921;-61
2022/01/30 00:07:03;;;;;;;;;;;;;;;26.84;24.61;97671.72;170942;28;1218;-61
2022/01/30 00:07:08;;;;;;;;;;;;;;;26.82;24.62;97665.75;170610;29;902;-62
2022/01/30 00:07:13;;;;;;;;;;;;;;;26.82;24.47;97668.38;171071;28;1286;-61
2022/01/30 00:07:18;;;;;;;;;;;;;;;26.83;24.37;97670.06;170690;28;890;-61
2022/01/30 00:07:24;;;;;;;;;;;;;;;26.82;24.54;97676.31;170511;29;1170;-61
2022/01/30 00:07:29;;;;;;;;;;;;;;;26.82;24.32;97663.09;170572;29;810;-62
2022/01/30 00:07:34;;;;;;;;;;;;;;;26.83;24.71;97663.94;170903;28;1070;-61
2022/01/30 00:07:39;;;;;;;;;;;;;;;26.83;24.58;97670.06;170440;29;834;-61
2022/01/30 00:07:44;;;;;;;;;;;;;;;26.84;24.62;97661.16;170451;28;702;-62
2022/01/30 00:07:50;;;;;;;;;;;;;;;26.84;24.40;97673.53;170620;28;1123;-61
2022/01/30 00:07:55;;;;;;;;;;;;;;;26.83;24.34;97664.78;171100;28;970;-61
2022/01/30 00:08:00;;;;;;;;;;;;;;;26.82;24.42;97673.69;171106;28;1213;-61
2022/01/30 00:08:05;;;;;;;;;;;;;;;26.83;24.29;97672.72;171163;28;945;-61
2022/01/30 00:08:11;;;;;;;;;;;;;;;26.84;24.57;97665.59;171464;28;1210;-61
2022/01/30 00:08:16;;;;;;;;;;;;;;;26.82;24.49;97665.75;170513;28;798;-60
2022/01/30 00:08:21;;;;;;;;;;;;;;;26.84;24.67;97678.84;171087;28;1062;-61
2022/01/30 00:08:26;;;;;;;;;;;;;;;26.84;24.63;97673.53;171867;28;869;-60
2022/01/30 00:08:32;;;;;;;;;;;;;;;26.84;24.31;97670.91;171467;28;817;-60
2022/01/30 00:08:37;;;;;;;;;;;;;;;26.84;24.56;97670.91;171688;28;1094;-62
2022/01/30 00:08:42;;;;;;;;;;;;;;;26.83;24.63;97675.34;171075;28;799;-61
2022/01/30 00:08:48;;;;;;;;;;;;;;;26.83;24.58;97674.50;171251;28;1129;-61
2022/01/30 00:08:53;;;;;;;;;;;;;;;26.82;24.56;97668.38;171165;28;953;-62
2022/01/30 00:08:59;;;;;;;;;;;;;;;26.82;24.70;97673.69;171124;28;1163;-62
2022/01/30 00:09:06;;;;;;;;;;;;;;;26.81;24.67;97672.00;169596;29;1276;-61
2022/01/30 00:09:18;;;;;;;;;;;;;;;26.82;24.45;97678.97;171123;28;1047;-62
2022/01/30 00:09:23;;;;;;;;;;;;;;;26.81;24.51;97677.28;171100;28;1134;-61
2022/01/30 00:09:28;;;;;;;;;;;;;;;26.82;24.60;97675.47;171219;28;930;-62
2022/01/30 00:09:33;;;;;;;;;;;;;;;26.82;24.29;97672.84;171118;28;1225;-60
2022/01/30 00:09:39;;;;;;;;;;;;;;;26.80;24.32;97678.25;171333;28;798;-61
2022/01/30 00:09:46;;;;;;;;;;;;;;;26.82;24.33;97676.31;171063;28;4317;-62
2022/01/30 00:09:51;;;;;;;;;;;;;;;26.84;24.56;97677.03;169491;29;1902;-61
2022/01/30 00:09:56;;;;;;;;;;;;;;;26.84;24.53;97671.72;170451;29;1210;-61
2022/01/30 00:10:02;;;;;;;;;;;;;;;26.84;24.62;97671.72;171021;28;1117;-60
2022/01/30 00:10:11;;;;;;;;;;;;;;;26.86;24.74;97675.13;171122;28;976;-61
2022/01/30 00:10:16;;;;;;;;;;;;;;;26.87;24.53;97668.84;170617;29;914;-61
2022/01/30 00:10:21;;;;;;;;;;;;;;;26.87;24.40;97676.78;171135;28;1102;-61
2022/01/30 00:10:26;;;;;;;;;;;;;;;26.88;24.31;97677.63;171243;28;858;-62
2022/01/30 00:10:37;;;;;;;;;;;;;;;26.86;24.68;97683.06;171174;28;1087;-62
2022/01/30 00:10:43;;;;;;;;;;;;;;;26.84;24.61;97673.53;170527;28;1123;-60
2022/01/30 00:10:55;;;;;;;;;;;;;;;26.85;24.55;97688.44;171156;28;818;-61
2022/01/30 00:11:09;;;;;;;;;;;;;;;26.84;24.31;97686.78;170847;28;944;-61
2022/01/30 00:11:19;;;;;;;;;;;;;;;26.88;24.28;97675.00;171343;28;913;-61
2022/01/30 00:11:30;;;;;;;;;;;;;;;26.86;24.30;97684.84;171958;28;910;-62
2022/01/30 00:11:38;;;;;;;;;;;;;;;26.86;24.49;97677.75;171129;28;794;-61
2022/01/30 00:11:47;;;;;;;;;;;;;;;26.87;24.54;97671.50;170822;28;1091;-61
2022/01/30 00:11:57;;;;;;;;;;;;;;;26.86;24.31;97674.25;171024;28;913;-62
2022/01/30 00:12:04;;;;;;;;;;;;;;;26.84;24.50;97677.03;171472;28;1093;-60
2022/01/30 00:12:10;;;;;;;;;;;;;;;26.87;24.56;97674.16;172549;28;814;-61
2022/01/30 00:12:19;;;;;;;;;;;;;;;26.90;24.34;97678.34;172705;28;861;-62
2022/01/30 00:12:36;;;;;;;;;;;;;;;26.89;24.20;97682.78;171516;28;684;-60
2022/01/30 00:12:54;;;;;;;;;;;;;;;26.85;24.29;97676.06;171741;28;821;-61
2022/01/30 00:13:01;;;;;;;;;;;;;;;26.85;24.37;97667.28;172427;28;974;-61
2022/01/30 00:13:09;;;;;;;;;;;;;;;26.85;24.54;97672.56;171733;28;1027;-61
2022/01/30 00:13:17;;;;;;;;;;;;;;;26.85;24.32;97672.56;172582;28;822;-61
2022/01/30 00:13:25;;;;;;;;;;;;;;;26.86;24.37;97679.53;172511;28;885;-61
2022/01/30 00:13:30;;;;;;;;;;;;;;;26.84;24.35;97681.47;172541;28;970;-61
2022/01/30 00:13:35;;;;;;;;;;;;;;;26.82;24.39;97681.63;171936;28;854;-61
2022/01/30 00:13:40;;;;;;;;;;;;;;;26.85;24.64;97689.28;170549;28;4379;-62
2022/01/30 00:13:46;;;;;;;;;;;;;;;26.88;24.46;97689.06;170902;28;778;-61
2022/01/30 00:13:51;;;;;;;;;;;;;;;26.87;24.53;97681.25;170532;28;1395;-61
2022/01/30 00:13:58;;;;;;;;;;;;;;;26.90;24.33;97683.63;170375;29;826;-61
2022/01/30 00:14:05;;;;;;;;;;;;;;;26.90;24.22;97688.94;170422;28;1205;-61
2022/01/30 00:14:14;;;;;;;;;;;;;;;26.87;24.54;97684.72;171274;28;865;-62
2022/01/30 00:14:21;;;;;;;;;;;;;;;26.83;24.41;97687.75;170951;28;822;-61
2022/01/30 00:14:29;;;;;;;;;;;;;;;26.86;24.59;97680.41;171250;28;1113;-61
2022/01/30 00:14:36;;;;;;;;;;;;;;;26.86;24.54;97683.06;171795;28;806;-61
2022/01/30 00:14:41;;;;;;;;;;;;;;;26.84;24.61;97677.03;171488;28;1055;-60
2022/01/30 00:14:52;;;;;;;;;;;;;;;26.80;24.61;97693.31;170927;28;894;-60
2022/01/30 00:14:58;;;;;;;;;;;;;;;26.80;24.63;97688.84;171100;28;901;-60
2022/01/30 00:15:04;;;;;;;;;;;;;;;26.85;24.41;97678.72;171223;28;1153;-61
2022/01/30 00:15:10;;;;;;;;;;;;;;;26.88;24.63;97685.56;169965;29;814;-60
2022/01/30 00:15:17;;;;;;;;;;;;;;;26.88;24.33;97683.75;169897;29;1127;-62
2022/01/30 00:15:45;;;;;;;;;;;;;;;26.86;24.67;97675.13;170627;29;846;-62
2022/01/30 00:15:53;;;;;;;;;;;;;;;26.85;24.31;97676.06;170872;28;1117;-61
2022/01/30 00:16:03;;;;;;;;;;;;;;;26.82;24.52;97692.19;171111;28;782;-61
2022/01/30 00:16:10;;;;;;;;;;;;;;;26.81;24.36;97672.00;171773;28;1468;-61
2022/01/30 00:16:18;;;;;;;;;;;;;;;26.82;24.60;97684.25;171203;28;1138;-62
2022/01/30 00:16:25;;;;;;;;;;;;;;;26.80;24.29;97686.19;171663;28;742;-61
2022/01/30 00:16:34;;;;;;;;;;;;;;;26.80;24.57;97680.91;171972;28;908;-60
2022/01/30 00:16:39;;;;;;;;;;;;;;;26.82;24.54;97694.84;171473;28;1209;-62
2022/01/30 00:16:44;;;;;;;;;;;;;;;26.81;24.37;97685.22;171637;28;810;-60
2022/01/30 00:17:26;;;;;;;;;;;;;;;26.79;24.51;97673.09;173139;28;841;-62
2022/01/30 00:17:30;;;;;;;;;;;;;;;26.80;24.63;97682.72;171620;28;1063;-62
2022/01/30 00:17:39;;;;;;;;;;;;;;;26.79;24.65;97681.03;171538;28;1029;-62
2022/01/30 00:17:54;;;;;;;;;;;;;;;26.84;24.66;97687.63;171280;28;4418;-60
2022/01/30 00:18:10;;;;;;;;;;;;;;;26.88;24.50;97682.94;171755;28;991;-62
2022/01/30 00:18:58;;;;;;;;;;;;;;;26.88;24.29;97678.47;170903;28;1067;-61
2022/01/30 00:19:13;;;;;;;;;;;;;;;26.94;24.45;97685.06;172460;28;778;-60
2022/01/30 00:19:22;;;;;;;;;;;;;;;26.83;24.56;97683.28;170473;28;1571;-61
2022/01/30 00:19:43;;;;;;;;;;;;;;;26.83;24.34;97678.00;171196;28;822;-61
2022/01/30 00:20:02;;;;;;;;;;;;;;;26.80;24.40;97682.72;170766;28;1094;-60
2022/01/30 00:20:13;;;;;;;;;;;;;;;26.84;24.32;97684.97;171217;28;1209;-61
2022/01/30 00:20:22;;;;;;;;;;;;;;;26.84;24.35;97681.47;171129;28;904;-61
2022/01/30 00:20:32;;;;;;;;;;;;;;;26.83;24.53;97675.34;170500;29;870;-61
2022/01/30 00:20:40;;;;;;;;;;;;;;;26.81;24.19;97679.09;171086;28;822;-62
2022/01/30 00:20:55;;;;;;;;;;;;;;;26.82;24.73;97678.97;170302;29;1182;-60
2022/01/30 00:21:13;;;;;;;;;;;;;;;26.81;24.68;97679.94;171492;28;884;-61
2022/01/30 00:21:44;;;;;;;;;;;;;;;26.81;24.71;97671.16;171495;28;1178;-61
2022/01/30 00:22:00;;;;;;;;;;;;;;;26.85;24.66;97683.16;170131;28;4283;-62
2022/01/30 00:22:47;;;;;;;;;;;;;;;26.79;24.40;97681.03;171755;28;787;-60
2022/01/30 00:23:23;;;;;;;;;;;;;;;26.78;24.77;97676.69;171864;28;837;-61
2022/01/30 00:23:28;;;;;;;;;;;;;;;26.79;24.36;97673.09;171735;28;1251;-62
2022/01/30 00:23:36;;;;;;;;;;;;;;;26.77;24.74;97681.13;172538;28;901;-62
2022/01/30 00:23:48;;;;;;;;;;;;;;;26.80;24.52;97677.44;172237;28;1046;-62
2022/01/30 00:24:13;;;;;;;;;;;;;;;26.77;24.60;97694.38;172556;28;986;-60
2022/01/30 00:24:57;;;;;;;;;;;;;;;26.80;24.45;97682.72;171455;28;659;-61
2022/01/30 00:25:06;;;;;;;;;;;;;;;26.79;24.70;97696.91;173081;28;1002;-60
2022/01/30 00:25:07;;;;;;;;;;;;;;;26.77;24.52;97675.00;171148;28;1102;-60
2022/01/30 00:25:15;;;;;;;;;;;;;;;26.80;24.43;97675.63;173291;28;830;-62
2022/01/30 00:25:31;;;;;;;;;;;;;;;26.80;24.42;97672.97;173224;28;830;-62
2022/01/30 00:25:48;;;;;;;;;;;;;;;26.78;24.68;97671.41;171833;28;1038;-62
2022/01/30 00:25:56;;;;;;;;;;;;;;;26.78;24.75;97684.63;172808;28;4418;-62
2022/01/30 00:26:03;;;;;;;;;;;;;;;26.79;24.25;97683.69;172956;28;1073;-61
2022/01/30 00:26:09;;;;;;;;;;;;;;;26.80;24.55;97675.63;173299;28;841;-61
2022/01/30 00:26:17;;;;;;;;;;;;;;;26.77;24.52;97675.84;173093;28;1125;-62
2022/01/30 00:26:28;;;;;;;;;;;;;;;26.79;24.44;97671.28;173228;28;801;-62
2022/01/30 00:26:36;;;;;;;;;;;;;;;26.82;24.47;97688.72;171814;28;834;-63
2022/01/30 00:26:42;;;;;;;;;;;;;;;26.83;24.68;97680.66;172400;28;849;-61
2022/01/30 00:26:47;;;;;;;;;;;;;;;26.82;24.68;97692.19;172232;28;872;-60
2022/01/30 00:26:53;;;;;;;;;;;;;;;26.81;24.71;97679.09;172428;28;929;-61
2022/01/30 00:26:58;;;;;;;;;;;;;;;26.80;24.37;97674.78;172502;28;738;-61
2022/01/30 00:27:03;;;;;;;;;;;;;;;26.79;24.68;97670.47;172241;28;1236;-61
2022/01/30 00:27:15;;;;;;;;;;;;;;;26.79;24.63;97678.41;172605;28;842;-62
2022/01/30 00:27:29;;;;;;;;;;;;;;;26.79;24.50;97673.94;172062;28;897;-61
2022/01/30 00:27:47;;;;;;;;;;;;;;;26.80;24.43;97672.13;171858;28;885;-62
2022/01/30 00:28:02;;;;;;;;;;;;;;;26.77;24.50;97685.59;171477;28;893;-62
2022/01/30 00:28:11;;;;;;;;;;;;;;;26.74;24.50;97669.97;171805;28;786;-60
2022/01/30 00:28:18;;;;;;;;;;;;;;;26.76;24.76;97678.63;171609;28;1609;-61
2022/01/30 00:28:25;;;;;;;;;;;;;;;26.77;24.51;97681.13;171300;28;854;-62
2022/01/30 00:28:32;;;;;;;;;;;;;;;26.75;24.46;97680.44;171175;28;850;-60
2022/01/30 00:28:38;;;;;;;;;;;;;;;26.75;24.45;97688.38;172288;28;1126;-60
2022/01/30 00:28:43;;;;;;;;;;;;;;;26.74;24.46;97686.69;172469;28;801;-61
2022/01/30 00:28:48;;;;;;;;;;;;;;;26.78;24.70;97695.22;172212;28;1158;-60
2022/01/30 00:28:53;;;;;;;;;;;;;;;26.77;24.66;97689.06;173005;28;897;-62
2022/01/30 00:28:58;;;;;;;;;;;;;;;26.79;24.69;97687.16;172938;28;909;-62
2022/01/30 00:29:04;;;;;;;;;;;;;;;26.78;24.61;97693.44;173104;28;970;-61
2022/01/30 00:29:09;;;;;;;;;;;;;;;26.77;24.38;97686.44;173241;28;907;-62
2022/01/30 00:29:14;;;;;;;;;;;;;;;26.80;24.40;97685.38;173183;28;884;-61
2022/01/30 00:29:20;;;;;;;;;;;;;;;26.80;24.46;97682.72;173188;28;872;-62
2022/01/30 00:29:25;;;;;;;;;;;;;;;26.80;24.39;97682.72;172443;28;1184;-61
2022/01/30 00:29:30;;;;;;;;;;;;;;;26.81;24.68;97687.03;172593;28;889;-61
2022/01/30 00:29:35;;;;;;;;;;;;;;;26.80;24.39;97682.72;172488;28;1117;-62
2022/01/30 00:29:40;;;;;;;;;;;;;;;26.78;24.34;97680.19;172417;28;983;-60
2022/01/30 00:29:46;;;;;;;;;;;;;;;26.79;24.44;97675.75;171583;28;4408;-61
2022/01/30 00:29:52;;;;;;;;;;;;;;;26.79;24.71;97675.75;171919;28;1918;-62
2022/01/30 00:29:57;;;;;;;;;;;;;;;26.79;24.37;97683.69;172499;28;1054;-61
2022/01/30 00:30:03;;;;;;;;;;;;;;;26.74;24.70;97681.41;172252;28;1141;-61
2022/01/30 00:30:10;;;;;;;;;;;;;;;26.79;24.71;97688.97;172533;28;1133;-62
2022/01/30 00:30:16;;;;;;;;;;;;;;;26.83;24.64;97685.09;172554;28;762;-61
2022/01/30 00:30:21;;;;;;;;;;;;;;;26.81;24.44;97677.28;172499;28;1106;-60
2022/01/30 00:30:32;;;;;;;;;;;;;;;26.81;24.42;97679.09;171855;28;854;-61
2022/01/30 00:30:37;;;;;;;;;;;;;;;26.79;24.63;97686.34;171118;28;865;-61
2022/01/30 00:30:43;;;;;;;;;;;;;;;26.80;24.61;97682.72;171686;28;1153;-61
2022/01/30 00:30:49;;;;;;;;;;;;;;;26.79;24.42;97681.03;171601;28;964;-61
2022/01/30 00:30:55;;;;;;;;;;;;;;;26.82;24.51;97686.91;171817;28;810;-61
2022/01/30 00:31:00;;;;;;;;;;;;;;;26.84;24.47;97697.34;170842;28;1000;-61
2022/01/30 00:31:05;;;;;;;;;;;;;;;26.86;24.36;97690.13;171134;28;834;-60
2022/01/30 00:31:13;;;;;;;;;;;;;;;26.89;24.43;97684.59;170529;29;1167;-62
2022/01/30 00:31:20;;;;;;;;;;;;;;;26.90;24.33;97687.13;170430;29;830;-61
2022/01/30 00:31:26;;;;;;;;;;;;;;;26.87;24.44;97686.53;170698;28;854;-61
2022/01/30 00:31:33;;;;;;;;;;;;;;;26.89;24.56;97677.50;171107;28;1091;-61
2022/01/30 00:31:39;;;;;;;;;;;;;;;26.87;24.46;97690.03;170494;29;774;-61
2022/01/30 00:31:44;;;;;;;;;;;;;;;26.86;24.55;97691.00;168957;29;1171;-61
2022/01/30 00:31:50;;;;;;;;;;;;;;;26.85;24.29;97693.75;168849;29;977;-61
2022/01/30 00:31:55;;;;;;;;;;;;;;;26.85;24.42;97693.75;169016;29;993;-61
2022/01/30 00:32:00;;;;;;;;;;;;;;;26.85;24.31;97689.28;168884;29;1156;-62
2022/01/30 00:32:05;;;;;;;;;;;;;;;26.84;24.45;97686.78;169088;29;1104;-61
2022/01/30 00:32:11;;;;;;;;;;;;;;;26.83;24.39;97685.94;169271;29;826;-61
2022/01/30 00:32:16;;;;;;;;;;;;;;;26.85;24.48;97673.41;169056;29;870;-61
2022/01/30 00:32:21;;;;;;;;;;;;;;;26.85;24.49;97681.34;169164;29;1182;-62
2022/01/30 00:32:26;;;;;;;;;;;;;;;26.84;24.47;97682.31;169790;29;902;-61
2022/01/30 00:32:31;;;;;;;;;;;;;;;26.86;24.40;97693.66;169782;29;1131;-62
2022/01/30 00:32:37;;;;;;;;;;;;;;;26.86;24.37;97692.78;169898;29;731;-61
2022/01/30 00:32:42;;;;;;;;;;;;;;;26.86;24.36;97687.47;169700;29;1183;-62
2022/01/30 00:32:47;;;;;;;;;;;;;;;26.84;24.40;97686.78;170181;29;728;-61
2022/01/30 00:32:52;;;;;;;;;;;;;;;26.85;24.35;97693.75;170391;29;962;-62
2022/01/30 00:32:57;;;;;;;;;;;;;;;26.83;24.41;97690.38;170386;29;850;-62
2022/01/30 00:33:03;;;;;;;;;;;;;;;26.84;24.35;97687.63;170136;28;1098;-62
2022/01/30 00:33:08;;;;;;;;;;;;;;;26.85;24.61;97691.09;171162;28;1091;-61
2022/01/30 00:33:13;;;;;;;;;;;;;;;26.85;24.54;97691.09;171273;28;798;-61
2022/01/30 00:33:18;;;;;;;;;;;;;;;26.85;24.58;97688.44;171027;28;1007;-62
2022/01/30 00:33:24;;;;;;;;;;;;;;;26.85;24.42;97681.34;171296;28;929;-61
2022/01/30 00:33:29;;;;;;;;;;;;;;;26.84;24.61;97692.06;171133;28;1115;-61
2022/01/30 00:33:34;;;;;;;;;;;;;;;26.85;24.42;97685.81;170551;29;619;-62
2022/01/30 00:33:39;;;;;;;;;;;;;;;26.83;24.26;97685.94;169987;29;4408;-61
2022/01/30 00:33:44;;;;;;;;;;;;;;;26.84;24.60;97690.25;170273;29;875;-61
2022/01/30 00:33:50;;;;;;;;;;;;;;;26.84;24.63;97698.19;170307;28;1055;-60
2022/01/30 00:33:55;;;;;;;;;;;;;;;26.84;24.62;97695.56;170610;28;1031;-60
2022/01/30 00:34:01;;;;;;;;;;;;;;;26.85;24.28;97694.59;170227;29;1141;-61
2022/01/30 00:34:06;;;;;;;;;;;;;;;26.83;24.60;97691.22;169778;29;1438;-60
2022/01/30 00:34:12;;;;;;;;;;;;;;;26.85;24.57;97694.59;169795;29;2157;-62
2022/01/30 00:34:17;;;;;;;;;;;;;;;26.86;24.34;97700.72;170609;28;977;-60
2022/01/30 00:34:22;;;;;;;;;;;;;;;26.87;24.62;97697.97;171242;28;818;-62
2022/01/30 00:34:27;;;;;;;;;;;;;;;26.90;24.32;97702.16;171332;28;1205;-62
2022/01/30 00:34:32;;;;;;;;;;;;;;;26.92;24.39;97698.41;171810;28;806;-62
2022/01/30 00:34:38;;;;;;;;;;;;;;;26.92;24.51;97697.56;171652;28;1008;-61
2022/01/30 00:34:43;;;;;;;;;;;;;;;26.90;24.58;97703.00;170680;28;1091;-61
2022/01/30 00:34:48;;;;;;;;;;;;;;;26.89;24.54;97696.03;170949;28;794;-61
2022/01/30 00:34:53;;;;;;;;;;;;;;;26.86;24.60;97691.00;171132;28;956;-61
2022/01/30 00:34:58;;;;;;;;;;;;;;;26.89;24.29;97690.72;171126;28;918;-61
2022/01/30 00:35:04;;;;;;;;;;;;;;;26.88;24.47;97694.34;170963;28;1086;-60
2022/01/30 00:35:09;;;;;;;;;;;;;;;26.91;24.27;97691.44;171125;28;897;-61
2022/01/30 00:35:14;;;;;;;;;;;;;;;26.92;24.53;97694.94;171123;28;1150;-62
2022/01/30 00:35:20;;;;;;;;;;;;;;;26.90;24.32;97686.28;171833;28;870;-61
2022/01/30 00:35:25;;;;;;;;;;;;;;;26.91;24.55;97688.78;171976;28;870;-62
2022/01/30 00:35:30;;;;;;;;;;;;;;;26.93;24.50;97693.94;171606;28;1335;-62
2022/01/30 00:35:38;;;;;;;;;;;;;;;26.89;24.33;97692.53;171213;28;786;-62
2022/01/30 00:35:43;;;;;;;;;;;;;;;26.90;24.55;97686.28;171860;28;837;-62
2022/01/30 00:35:48;;;;;;;;;;;;;;;26.89;24.35;97687.25;171370;28;1117;-62
2022/01/30 00:35:54;;;;;;;;;;;;;;;26.89;24.35;97677.50;171749;28;978;-60
2022/01/30 00:35:59;;;;;;;;;;;;;;;26.90;24.47;97688.94;171792;28;865;-61
2022/01/30 00:36:04;;;;;;;;;;;;;;;26.87;24.36;97682.09;171802;28;980;-61
2022/01/30 00:36:09;;;;;;;;;;;;;;;26.85;24.31;97683.16;172617;28;474;-60
2022/01/30 00:36:14;;;;;;;;;;;;;;;26.86;24.69;97680.41;172283;28;1220;-62
2022/01/30 00:36:20;;;;;;;;;;;;;;;26.85;24.25;97678.72;170357;28;1288;-61
2022/01/30 00:36:25;;;;;;;;;;;;;;;26.85;24.38;97686.66;170555;29;1111;-61
2022/01/30 00:36:31;;;;;;;;;;;;;;;26.83;24.39;97688.59;170420;29;799;-62
2022/01/30 00:36:36;;;;;;;;;;;;;;;26.83;24.69;97687.75;170319;28;1285;-61
2022/01/30 00:36:41;;;;;;;;;;;;;;;26.82;24.67;97692.19;170431;29;921;-62
2022/01/30 00:36:47;;;;;;;;;;;;;;;26.82;24.62;97691.38;170901;28;805;-61
2022/01/30 00:36:52;;;;;;;;;;;;;;;26.82;24.52;97681.63;171112;28;1098;-61
2022/01/30 00:36:57;;;;;;;;;;;;;;;26.84;24.36;97676.19;171104;28;873;-61
2022/01/30 00:37:03;;;;;;;;;;;;;;;26.83;24.61;97685.94;170856;28;797;-61
2022/01/30 00:37:08;;;;;;;;;;;;;;;26.85;24.66;97693.75;171231;28;868;-61
2022/01/30 00:37:14;;;;;;;;;;;;;;;26.87;24.59;97689.19;171150;28;1162;-61
2022/01/30 00:37:19;;;;;;;;;;;;;;;26.88;24.73;97690.88;171148;28;833;-62
2022/01/30 00:37:24;;;;;;;;;;;;;;;26.87;24.53;97678.59;171152;28;1154;-61
2022/01/30 00:37:29;;;;;;;;;;;;;;;26.86;24.38;97685.72;171052;28;963;-61
2022/01/30 00:37:40;;;;;;;;;;;;;;;26.83;24.51;97685.09;171156;28;1177;-60
2022/01/30 00:37:48;;;;;;;;;;;;;;;26.85;24.38;97686.66;170644;28;4419;-60
2022/01/30 00:37:54;;;;;;;;;;;;;;;26.86;24.24;97676.91;171169;28;858;-62
2022/01/30 00:38:00;;;;;;;;;;;;;;;26.85;24.64;97681.34;170729;28;984;-61
2022/01/30 00:38:06;;;;;;;;;;;;;;;26.86;24.60;97685.72;171811;28;804;-61
2022/01/30 00:38:15;;;;;;;;;;;;;;;26.86;24.51;97671.59;171869;28;1149;-61
2022/01/30 00:38:22;;;;;;;;;;;;;;;26.86;24.55;97692.78;172585;28;932;-62
2022/01/30 00:38:27;;;;;;;;;;;;;;;26.85;24.36;97693.75;172477;28;920;-61
2022/01/30 00:38:34;;;;;;;;;;;;;;;26.84;24.61;97684.13;172466;28;778;-62
2022/01/30 00:38:39;;;;;;;;;;;;;;;26.82;24.26;97686.91;172463;28;940;-61
2022/01/30 00:38:44;;;;;;;;;;;;;;;26.82;24.30;97683.41;171957;28;785;-61
2022/01/30 00:38:50;;;;;;;;;;;;;;;26.82;24.57;97686.91;171649;28;1051;-61
2022/01/30 00:38:55;;;;;;;;;;;;;;;26.84;24.44;97705.31;171835;28;1062;-62
2022/01/30 00:39:00;;;;;;;;;;;;;;;26.82;24.58;97676.31;171091;28;1113;-62
2022/01/30 00:39:05;;;;;;;;;;;;;;;26.82;24.41;97683.41;171885;28;960;-61
2022/01/30 00:39:10;;;;;;;;;;;;;;;26.82;24.64;97686.91;171850;28;1190;-61